OIII/THR METAR and TAF weather

Enter ICAO airport designator
Station Type Date Time Source
OIII METAR 2020/09/23 19:00 UTC NOAA

OIII 231900Z 14004KT CAVOK 25/04 Q1018 A3007 NOSIG


Station Type Date Time Source
OIII Decoded METAR 2020/09/23 19:00 UTC NOAA

Tehran-Mehrabad, Iran (OIII) 35-41N 051-21E 1191M
Sep 23, 2020 - 03:00 PM EDT / 2020.09.23 1900 UTC
Wind: from the SE (140 degrees) at 5 MPH (4 KT):0
Visibility: greater than 7 mile(s):0
Temperature: 77 F (25 C)
Dew Point: 39 F (4 C)
Relative Humidity: 25%
Pressure (altimeter): 30.07 in. Hg (1018 hPa)
ob: OIII 231900Z 14004KT CAVOK 25/04 Q1018 A3007 NOSIG
cycle: 19

Station Type Date Time Source
OIII TAF 2020/09/23 18:36 UTC NOAA

TAF OIII 231730Z 2318/2424 14008KT 8000 FEW040
TEMPO 2408/2414 10010KT FEW035TCU SCT100

Example: see airport list